sensor_id;sensor_type;location;lat;lon;timestamp;P1;durP1;ratioP1;P2;durP2;ratioP2
13588;SDS011;6865;52.552;13.434;2023-05-14T00:01:00;11.05;;;8.90;;
13588;SDS011;6865;52.552;13.434;2023-05-14T00:03:27;11.75;;;9.30;;
13588;SDS011;6865;52.552;13.434;2023-05-14T00:05:53;10.27;;;9.07;;
13588;SDS011;6865;52.552;13.434;2023-05-14T00:08:20;10.17;;;8.83;;
13588;SDS011;6865;52.552;13.434;2023-05-14T00:10:46;9.80;;;8.80;;
13588;SDS011;6865;52.552;13.434;2023-05-14T00:13:13;12.43;;;9.40;;
13588;SDS011;6865;52.552;13.434;2023-05-14T00:15:40;10.30;;;8.73;;
13588;SDS011;6865;52.552;13.434;2023-05-14T00:18:06;15.07;;;10.05;;
13588;SDS011;6865;52.552;13.434;2023-05-14T00:20:37;9.82;;;8.48;;
13588;SDS011;6865;52.552;13.434;2023-05-14T00:23:03;11.25;;;8.95;;
13588;SDS011;6865;52.552;13.434;2023-05-14T00:25:30;11.40;;;8.30;;
13588;SDS011;6865;52.552;13.434;2023-05-14T00:27:56;10.65;;;7.85;;
13588;SDS011;6865;52.552;13.434;2023-05-14T00:30:23;11.18;;;8.48;;
13588;SDS011;6865;52.552;13.434;2023-05-14T00:32:50;10.15;;;7.82;;
13588;SDS011;6865;52.552;13.434;2023-05-14T00:35:17;10.97;;;7.90;;
13588;SDS011;6865;52.552;13.434;2023-05-14T00:37:45;10.05;;;7.50;;
13588;SDS011;6865;52.552;13.434;2023-05-14T00:40:12;9.25;;;7.82;;
13588;SDS011;6865;52.552;13.434;2023-05-14T00:42:39;10.55;;;8.57;;
13588;SDS011;6865;52.552;13.434;2023-05-14T00:45:06;8.85;;;7.80;;
13588;SDS011;6865;52.552;13.434;2023-05-14T00:47:33;10.82;;;8.00;;
13588;SDS011;6865;52.552;13.434;2023-05-14T00:50:00;8.80;;;7.70;;
13588;SDS011;6865;52.552;13.434;2023-05-14T00:52:28;8.73;;;7.82;;
13588;SDS011;6865;52.552;13.434;2023-05-14T00:54:55;12.13;;;8.23;;
13588;SDS011;6865;52.552;13.434;2023-05-14T00:57:23;8.27;;;7.40;;
13588;SDS011;6865;52.552;13.434;2023-05-14T00:59:50;10.27;;;7.77;;
13588;SDS011;6865;52.552;13.434;2023-05-14T01:02:16;12.40;;;8.38;;
13588;SDS011;6865;52.552;13.434;2023-05-14T01:04:43;9.63;;;8.00;;
13588;SDS011;6865;52.552;13.434;2023-05-14T01:07:27;9.45;;;7.40;;
13588;SDS011;6865;52.552;13.434;2023-05-14T01:10:20;8.10;;;7.05;;
13588;SDS011;6865;52.552;13.434;2023-05-14T01:12:58;8.40;;;7.32;;
13588;SDS011;6865;52.552;13.434;2023-05-14T01:15:32;10.23;;;7.10;;
13588;SDS011;6865;52.552;13.434;2023-05-14T01:18:06;9.73;;;7.10;;
13588;SDS011;6865;52.552;13.434;2023-05-14T01:20:34;9.23;;;7.53;;
13588;SDS011;6865;52.552;13.434;2023-05-14T01:23:01;8.00;;;7.20;;
13588;SDS011;6865;52.552;13.434;2023-05-14T01:25:29;8.53;;;7.13;;
13588;SDS011;6865;52.552;13.434;2023-05-14T01:30:35;8.30;;;7.47;;
13588;SDS011;6865;52.552;13.434;2023-05-14T01:33:10;9.00;;;7.47;;
13588;SDS011;6865;52.552;13.434;2023-05-14T01:35:39;9.13;;;7.77;;
13588;SDS011;6865;52.552;13.434;2023-05-14T01:38:06;8.03;;;7.10;;
13588;SDS011;6865;52.552;13.434;2023-05-14T01:40:35;8.30;;;7.50;;
13588;SDS011;6865;52.552;13.434;2023-05-14T01:43:03;8.70;;;7.80;;
13588;SDS011;6865;52.552;13.434;2023-05-14T01:45:33;9.70;;;7.37;;
13588;SDS011;6865;52.552;13.434;2023-05-14T01:48:01;9.87;;;7.80;;
13588;SDS011;6865;52.552;13.434;2023-05-14T01:50:28;8.10;;;7.30;;
13588;SDS011;6865;52.552;13.434;2023-05-14T01:52:54;9.57;;;7.80;;
13588;SDS011;6865;52.552;13.434;2023-05-14T01:55:22;9.10;;;7.63;;
13588;SDS011;6865;52.552;13.434;2023-05-14T01:57:50;11.13;;;7.60;;
13588;SDS011;6865;52.552;13.434;2023-05-14T02:00:17;8.83;;;7.90;;
13588;SDS011;6865;52.552;13.434;2023-05-14T02:02:44;9.27;;;7.70;;
13588;SDS011;6865;52.552;13.434;2023-05-14T02:05:11;9.03;;;7.67;;
13588;SDS011;6865;52.552;13.434;2023-05-14T02:07:38;9.57;;;8.00;;
13588;SDS011;6865;52.552;13.434;2023-05-14T02:10:05;8.03;;;7.23;;
13588;SDS011;6865;52.552;13.434;2023-05-14T02:12:32;9.53;;;8.20;;
13588;SDS011;6865;52.552;13.434;2023-05-14T02:14:59;9.40;;;7.53;;
13588;SDS011;6865;52.552;13.434;2023-05-14T02:17:26;9.30;;;7.60;;
13588;SDS011;6865;52.552;13.434;2023-05-14T02:19:52;7.90;;;7.10;;
13588;SDS011;6865;52.552;13.434;2023-05-14T02:22:19;8.70;;;7.30;;
13588;SDS011;6865;52.552;13.434;2023-05-14T02:24:46;7.70;;;6.90;;
13588;SDS011;6865;52.552;13.434;2023-05-14T02:27:14;8.23;;;6.82;;
13588;SDS011;6865;52.552;13.434;2023-05-14T02:29:41;7.87;;;7.10;;
13588;SDS011;6865;52.552;13.434;2023-05-14T02:32:07;8.13;;;6.50;;
13588;SDS011;6865;52.552;13.434;2023-05-14T02:34:34;8.13;;;6.30;;
13588;SDS011;6865;52.552;13.434;2023-05-14T02:37:01;7.13;;;6.40;;
13588;SDS011;6865;52.552;13.434;2023-05-14T02:39:27;6.85;;;5.80;;
13588;SDS011;6865;52.552;13.434;2023-05-14T02:41:54;9.43;;;6.07;;
13588;SDS011;6865;52.552;13.434;2023-05-14T02:44:21;7.67;;;6.03;;
13588;SDS011;6865;52.552;13.434;2023-05-14T02:46:47;7.77;;;5.63;;
13588;SDS011;6865;52.552;13.434;2023-05-14T02:49:14;8.37;;;6.30;;
13588;SDS011;6865;52.552;13.434;2023-05-14T02:51:40;7.27;;;5.70;;
13588;SDS011;6865;52.552;13.434;2023-05-14T02:54:07;10.37;;;6.13;;
13588;SDS011;6865;52.552;13.434;2023-05-14T02:56:34;8.30;;;6.20;;
13588;SDS011;6865;52.552;13.434;2023-05-14T02:59:00;11.27;;;6.30;;
13588;SDS011;6865;52.552;13.434;2023-05-14T03:01:27;8.43;;;6.33;;
13588;SDS011;6865;52.552;13.434;2023-05-14T03:03:54;10.17;;;7.03;;
13588;SDS011;6865;52.552;13.434;2023-05-14T03:06:21;8.90;;;7.05;;
13588;SDS011;6865;52.552;13.434;2023-05-14T03:08:48;7.60;;;6.83;;
13588;SDS011;6865;52.552;13.434;2023-05-14T03:11:14;7.63;;;6.53;;
13588;SDS011;6865;52.552;13.434;2023-05-14T03:13:41;8.63;;;7.17;;
13588;SDS011;6865;52.552;13.434;2023-05-14T03:16:07;8.52;;;6.50;;
13588;SDS011;6865;52.552;13.434;2023-05-14T03:18:34;8.52;;;6.40;;
13588;SDS011;6865;52.552;13.434;2023-05-14T03:21:01;8.57;;;6.87;;
13588;SDS011;6865;52.552;13.434;2023-05-14T03:23:29;10.32;;;5.90;;
13588;SDS011;6865;52.552;13.434;2023-05-14T03:25:57;8.65;;;6.38;;
13588;SDS011;6865;52.552;13.434;2023-05-14T03:28:23;10.47;;;6.90;;
13588;SDS011;6865;52.552;13.434;2023-05-14T03:30:51;9.77;;;6.33;;
13588;SDS011;6865;52.552;13.434;2023-05-14T03:33:17;8.10;;;5.60;;
13588;SDS011;6865;52.552;13.434;2023-05-14T03:35:44;8.80;;;6.30;;
13588;SDS011;6865;52.552;13.434;2023-05-14T03:38:11;8.47;;;5.70;;
13588;SDS011;6865;52.552;13.434;2023-05-14T03:40:37;7.97;;;5.70;;
13588;SDS011;6865;52.552;13.434;2023-05-14T03:43:04;7.03;;;5.43;;
13588;SDS011;6865;52.552;13.434;2023-05-14T03:45:31;7.30;;;5.57;;
13588;SDS011;6865;52.552;13.434;2023-05-14T03:47:59;7.33;;;5.50;;
13588;SDS011;6865;52.552;13.434;2023-05-14T03:50:25;7.55;;;5.55;;
13588;SDS011;6865;52.552;13.434;2023-05-14T03:52:52;7.30;;;4.97;;
13588;SDS011;6865;52.552;13.434;2023-05-14T03:55:20;9.82;;;5.60;;
13588;SDS011;6865;52.552;13.434;2023-05-14T03:57:46;6.32;;;4.80;;
13588;SDS011;6865;52.552;13.434;2023-05-14T04:00:14;8.73;;;5.45;;
13588;SDS011;6865;52.552;13.434;2023-05-14T04:02:41;6.60;;;5.63;;
13588;SDS011;6865;52.552;13.434;2023-05-14T04:05:08;7.00;;;5.70;;
13588;SDS011;6865;52.552;13.434;2023-05-14T04:07:34;8.23;;;5.95;;
13588;SDS011;6865;52.552;13.434;2023-05-14T04:10:01;8.23;;;5.30;;
13588;SDS011;6865;52.552;13.434;2023-05-14T04:12:30;8.27;;;5.50;;
13588;SDS011;6865;52.552;13.434;2023-05-14T04:14:57;5.53;;;5.03;;
13588;SDS011;6865;52.552;13.434;2023-05-14T04:17:23;7.07;;;5.00;;
13588;SDS011;6865;52.552;13.434;2023-05-14T04:19:50;6.25;;;5.60;;
13588;SDS011;6865;52.552;13.434;2023-05-14T04:22:17;9.48;;;5.28;;
13588;SDS011;6865;52.552;13.434;2023-05-14T04:24:44;7.35;;;5.30;;
13588;SDS011;6865;52.552;13.434;2023-05-14T04:27:13;7.70;;;5.45;;
13588;SDS011;6865;52.552;13.434;2023-05-14T04:29:47;7.95;;;5.10;;
13588;SDS011;6865;52.552;13.434;2023-05-14T04:32:14;8.52;;;5.13;;
13588;SDS011;6865;52.552;13.434;2023-05-14T04:34:41;7.53;;;5.05;;
13588;SDS011;6865;52.552;13.434;2023-05-14T04:37:07;6.80;;;5.28;;
13588;SDS011;6865;52.552;13.434;2023-05-14T04:39:35;7.15;;;5.35;;
13588;SDS011;6865;52.552;13.434;2023-05-14T04:42:03;9.73;;;5.78;;
13588;SDS011;6865;52.552;13.434;2023-05-14T04:44:32;6.95;;;5.60;;
13588;SDS011;6865;52.552;13.434;2023-05-14T04:46:59;6.88;;;5.15;;
13588;SDS011;6865;52.552;13.434;2023-05-14T04:49:27;8.10;;;5.32;;
13588;SDS011;6865;52.552;13.434;2023-05-14T04:51:54;11.40;;;5.95;;
13588;SDS011;6865;52.552;13.434;2023-05-14T04:54:20;7.40;;;5.03;;
13588;SDS011;6865;52.552;13.434;2023-05-14T04:56:48;8.05;;;4.82;;
13588;SDS011;6865;52.552;13.434;2023-05-14T04:59:15;8.40;;;5.57;;
13588;SDS011;6865;52.552;13.434;2023-05-14T05:01:42;7.82;;;5.43;;
13588;SDS011;6865;52.552;13.434;2023-05-14T05:04:09;5.50;;;5.00;;
13588;SDS011;6865;52.552;13.434;2023-05-14T05:06:35;8.20;;;5.28;;
13588;SDS011;6865;52.552;13.434;2023-05-14T05:09:02;10.80;;;5.90;;
13588;SDS011;6865;52.552;13.434;2023-05-14T05:11:29;8.95;;;5.80;;
13588;SDS011;6865;52.552;13.434;2023-05-14T05:13:56;10.20;;;5.68;;
13588;SDS011;6865;52.552;13.434;2023-05-14T05:16:22;7.22;;;5.25;;
13588;SDS011;6865;52.552;13.434;2023-05-14T05:18:49;8.05;;;5.30;;
13588;SDS011;6865;52.552;13.434;2023-05-14T05:21:16;8.13;;;5.65;;
13588;SDS011;6865;52.552;13.434;2023-05-14T05:23:42;11.32;;;5.38;;
13588;SDS011;6865;52.552;13.434;2023-05-14T05:26:09;5.75;;;4.63;;
13588;SDS011;6865;52.552;13.434;2023-05-14T05:28:35;8.45;;;5.18;;
13588;SDS011;6865;52.552;13.434;2023-05-14T05:31:02;9.48;;;4.88;;
13588;SDS011;6865;52.552;13.434;2023-05-14T05:33:29;7.72;;;5.43;;
13588;SDS011;6865;52.552;13.434;2023-05-14T05:35:56;9.35;;;5.47;;
13588;SDS011;6865;52.552;13.434;2023-05-14T05:38:22;7.50;;;4.70;;
13588;SDS011;6865;52.552;13.434;2023-05-14T05:40:49;9.15;;;4.72;;
13588;SDS011;6865;52.552;13.434;2023-05-14T05:43:15;8.82;;;4.65;;
13588;SDS011;6865;52.552;13.434;2023-05-14T05:45:43;6.72;;;4.70;;
13588;SDS011;6865;52.552;13.434;2023-05-14T05:48:11;6.13;;;4.60;;
13588;SDS011;6865;52.552;13.434;2023-05-14T05:50:37;7.50;;;5.57;;
13588;SDS011;6865;52.552;13.434;2023-05-14T05:53:04;11.15;;;5.28;;
13588;SDS011;6865;52.552;13.434;2023-05-14T05:55:30;9.50;;;5.93;;
13588;SDS011;6865;52.552;13.434;2023-05-14T05:57:58;8.93;;;5.68;;
13588;SDS011;6865;52.552;13.434;2023-05-14T06:00:24;10.68;;;5.15;;
13588;SDS011;6865;52.552;13.434;2023-05-14T06:02:52;7.53;;;4.95;;
13588;SDS011;6865;52.552;13.434;2023-05-14T06:05:18;7.03;;;4.88;;
13588;SDS011;6865;52.552;13.434;2023-05-14T06:07:45;8.05;;;5.05;;
13588;SDS011;6865;52.552;13.434;2023-05-14T06:10:13;7.07;;;4.78;;
13588;SDS011;6865;52.552;13.434;2023-05-14T06:12:40;7.93;;;4.82;;
13588;SDS011;6865;52.552;13.434;2023-05-14T06:15:06;7.53;;;4.93;;
13588;SDS011;6865;52.552;13.434;2023-05-14T06:17:33;9.57;;;4.88;;
13588;SDS011;6865;52.552;13.434;2023-05-14T06:20:00;5.40;;;4.45;;
13588;SDS011;6865;52.552;13.434;2023-05-14T06:22:27;9.68;;;5.13;;
13588;SDS011;6865;52.552;13.434;2023-05-14T06:24:53;8.68;;;4.70;;
13588;SDS011;6865;52.552;13.434;2023-05-14T06:27:20;6.38;;;4.80;;
13588;SDS011;6865;52.552;13.434;2023-05-14T06:29:46;6.03;;;4.80;;
13588;SDS011;6865;52.552;13.434;2023-05-14T06:32:13;8.63;;;4.80;;
13588;SDS011;6865;52.552;13.434;2023-05-14T06:34:41;8.45;;;4.57;;
13588;SDS011;6865;52.552;13.434;2023-05-14T06:37:08;11.27;;;4.70;;
13588;SDS011;6865;52.552;13.434;2023-05-14T06:39:36;6.65;;;4.38;;
13588;SDS011;6865;52.552;13.434;2023-05-14T06:42:03;5.97;;;4.25;;
13588;SDS011;6865;52.552;13.434;2023-05-14T06:44:30;5.90;;;4.43;;
13588;SDS011;6865;52.552;13.434;2023-05-14T06:46:57;7.38;;;4.43;;
13588;SDS011;6865;52.552;13.434;2023-05-14T06:49:23;5.13;;;3.92;;
13588;SDS011;6865;52.552;13.434;2023-05-14T06:51:50;6.10;;;3.90;;
13588;SDS011;6865;52.552;13.434;2023-05-14T06:54:17;7.97;;;4.50;;
13588;SDS011;6865;52.552;13.434;2023-05-14T06:56:45;8.85;;;4.32;;
13588;SDS011;6865;52.552;13.434;2023-05-14T06:59:12;4.60;;;4.00;;
13588;SDS011;6865;52.552;13.434;2023-05-14T07:01:38;8.65;;;4.50;;
13588;SDS011;6865;52.552;13.434;2023-05-14T07:04:06;6.78;;;4.32;;
13588;SDS011;6865;52.552;13.434;2023-05-14T07:06:32;7.15;;;4.18;;
13588;SDS011;6865;52.552;13.434;2023-05-14T07:08:59;9.48;;;4.40;;
13588;SDS011;6865;52.552;13.434;2023-05-14T07:11:26;6.25;;;4.22;;
13588;SDS011;6865;52.552;13.434;2023-05-14T07:13:53;5.47;;;4.10;;
13588;SDS011;6865;52.552;13.434;2023-05-14T07:16:20;6.97;;;4.32;;
13588;SDS011;6865;52.552;13.434;2023-05-14T07:18:46;5.45;;;4.00;;
13588;SDS011;6865;52.552;13.434;2023-05-14T07:21:13;4.60;;;3.67;;
13588;SDS011;6865;52.552;13.434;2023-05-14T07:23:40;6.35;;;3.88;;
13588;SDS011;6865;52.552;13.434;2023-05-14T07:26:06;6.38;;;4.05;;
13588;SDS011;6865;52.552;13.434;2023-05-14T07:28:33;6.70;;;3.80;;
13588;SDS011;6865;52.552;13.434;2023-05-14T07:31:00;8.38;;;4.28;;
13588;SDS011;6865;52.552;13.434;2023-05-14T07:33:27;5.18;;;3.83;;
13588;SDS011;6865;52.552;13.434;2023-05-14T07:35:54;6.95;;;4.70;;
13588;SDS011;6865;52.552;13.434;2023-05-14T07:38:20;8.23;;;4.07;;
13588;SDS011;6865;52.552;13.434;2023-05-14T07:40:47;10.18;;;4.00;;
13588;SDS011;6865;52.552;13.434;2023-05-14T07:43:14;6.20;;;4.00;;
13588;SDS011;6865;52.552;13.434;2023-05-14T07:45:41;7.63;;;3.90;;
13588;SDS011;6865;52.552;13.434;2023-05-14T07:48:07;9.68;;;4.22;;
13588;SDS011;6865;52.552;13.434;2023-05-14T07:50:35;6.28;;;3.75;;
13588;SDS011;6865;52.552;13.434;2023-05-14T07:53:02;6.80;;;3.75;;
13588;SDS011;6865;52.552;13.434;2023-05-14T07:55:29;6.13;;;4.03;;
13588;SDS011;6865;52.552;13.434;2023-05-14T07:57:55;5.65;;;3.78;;
13588;SDS011;6865;52.552;13.434;2023-05-14T08:00:22;5.78;;;3.78;;
13588;SDS011;6865;52.552;13.434;2023-05-14T08:02:49;5.32;;;3.60;;
13588;SDS011;6865;52.552;13.434;2023-05-14T08:05:17;5.50;;;3.63;;
13588;SDS011;6865;52.552;13.434;2023-05-14T08:07:43;4.75;;;3.53;;
13588;SDS011;6865;52.552;13.434;2023-05-14T08:10:10;5.13;;;3.58;;
13588;SDS011;6865;52.552;13.434;2023-05-14T08:12:37;6.88;;;3.67;;
13588;SDS011;6865;52.552;13.434;2023-05-14T08:15:04;6.80;;;4.05;;
13588;SDS011;6865;52.552;13.434;2023-05-14T08:17:32;6.00;;;4.05;;
13588;SDS011;6865;52.552;13.434;2023-05-14T08:19:59;8.10;;;3.92;;
13588;SDS011;6865;52.552;13.434;2023-05-14T08:22:26;4.53;;;3.65;;
13588;SDS011;6865;52.552;13.434;2023-05-14T08:24:53;5.00;;;3.50;;
13588;SDS011;6865;52.552;13.434;2023-05-14T08:27:20;6.10;;;3.40;;
13588;SDS011;6865;52.552;13.434;2023-05-14T08:29:46;5.93;;;3.47;;
13588;SDS011;6865;52.552;13.434;2023-05-14T08:32:13;4.68;;;3.78;;
13588;SDS011;6865;52.552;13.434;2023-05-14T08:34:48;4.47;;;3.67;;
13588;SDS011;6865;52.552;13.434;2023-05-14T08:37:15;5.32;;;3.90;;
13588;SDS011;6865;52.552;13.434;2023-05-14T08:39:42;4.20;;;3.53;;
13588;SDS011;6865;52.552;13.434;2023-05-14T08:42:09;5.72;;;3.83;;
13588;SDS011;6865;52.552;13.434;2023-05-14T08:44:41;5.82;;;3.80;;
13588;SDS011;6865;52.552;13.434;2023-05-14T08:47:17;5.13;;;3.53;;
13588;SDS011;6865;52.552;13.434;2023-05-14T08:50:02;6.35;;;3.60;;
13588;SDS011;6865;52.552;13.434;2023-05-14T08:52:30;4.30;;;3.88;;
13588;SDS011;6865;52.552;13.434;2023-05-14T08:54:59;5.55;;;4.18;;
13588;SDS011;6865;52.552;13.434;2023-05-14T08:57:29;4.32;;;3.45;;
13588;SDS011;6865;52.552;13.434;2023-05-14T08:59:58;4.93;;;3.63;;
13588;SDS011;6865;52.552;13.434;2023-05-14T09:02:29;4.82;;;3.72;;
13588;SDS011;6865;52.552;13.434;2023-05-14T09:04:57;4.10;;;3.70;;
13588;SDS011;6865;52.552;13.434;2023-05-14T09:07:25;4.80;;;3.60;;
13588;SDS011;6865;52.552;13.434;2023-05-14T09:09:53;4.50;;;3.40;;
13588;SDS011;6865;52.552;13.434;2023-05-14T09:12:20;4.78;;;3.83;;
13588;SDS011;6865;52.552;13.434;2023-05-14T09:14:48;4.60;;;3.70;;
13588;SDS011;6865;52.552;13.434;2023-05-14T09:17:16;4.47;;;3.47;;
13588;SDS011;6865;52.552;13.434;2023-05-14T09:19:44;7.57;;;4.13;;
13588;SDS011;6865;52.552;13.434;2023-05-14T09:22:14;4.65;;;3.20;;
13588;SDS011;6865;52.552;13.434;2023-05-14T09:24:42;5.25;;;3.65;;
13588;SDS011;6865;52.552;13.434;2023-05-14T09:27:18;5.45;;;3.55;;
13588;SDS011;6865;52.552;13.434;2023-05-14T09:29:46;9.57;;;3.35;;
13588;SDS011;6865;52.552;13.434;2023-05-14T09:32:13;4.78;;;3.65;;
13588;SDS011;6865;52.552;13.434;2023-05-14T09:34:40;4.47;;;3.28;;
13588;SDS011;6865;52.552;13.434;2023-05-14T09:37:07;5.15;;;3.42;;
13588;SDS011;6865;52.552;13.434;2023-05-14T09:39:35;5.78;;;3.30;;
13588;SDS011;6865;52.552;13.434;2023-05-14T09:42:02;4.50;;;3.45;;
13588;SDS011;6865;52.552;13.434;2023-05-14T09:44:29;7.85;;;3.35;;
13588;SDS011;6865;52.552;13.434;2023-05-14T09:46:57;3.97;;;3.45;;
13588;SDS011;6865;52.552;13.434;2023-05-14T09:49:23;5.78;;;3.22;;
13588;SDS011;6865;52.552;13.434;2023-05-14T09:51:50;4.55;;;3.42;;
13588;SDS011;6865;52.552;13.434;2023-05-14T09:54:17;3.70;;;3.25;;
13588;SDS011;6865;52.552;13.434;2023-05-14T09:56:43;3.65;;;3.08;;
13588;SDS011;6865;52.552;13.434;2023-05-14T09:59:10;4.22;;;3.28;;
13588;SDS011;6865;52.552;13.434;2023-05-14T10:01:37;5.40;;;3.60;;
13588;SDS011;6865;52.552;13.434;2023-05-14T10:04:06;3.83;;;3.40;;
13588;SDS011;6865;52.552;13.434;2023-05-14T10:06:36;4.40;;;3.28;;
13588;SDS011;6865;52.552;13.434;2023-05-14T10:09:04;4.97;;;3.55;;
13588;SDS011;6865;52.552;13.434;2023-05-14T10:11:40;5.15;;;3.63;;
13588;SDS011;6865;52.552;13.434;2023-05-14T10:16:58;3.95;;;3.40;;
13588;SDS011;6865;52.552;13.434;2023-05-14T10:19:26;5.80;;;3.38;;
13588;SDS011;6865;52.552;13.434;2023-05-14T10:21:55;7.22;;;3.88;;
13588;SDS011;6865;52.552;13.434;2023-05-14T10:24:26;7.30;;;4.05;;
13588;SDS011;6865;52.552;13.434;2023-05-14T10:26:53;4.18;;;3.35;;
13588;SDS011;6865;52.552;13.434;2023-05-14T10:29:30;4.20;;;3.20;;
13588;SDS011;6865;52.552;13.434;2023-05-14T10:32:06;4.72;;;3.38;;
13588;SDS011;6865;52.552;13.434;2023-05-14T10:34:38;5.32;;;3.35;;
13588;SDS011;6865;52.552;13.434;2023-05-14T10:37:07;6.57;;;3.83;;
13588;SDS011;6865;52.552;13.434;2023-05-14T10:39:40;4.45;;;3.63;;
13588;SDS011;6865;52.552;13.434;2023-05-14T10:42:07;5.57;;;3.53;;
13588;SDS011;6865;52.552;13.434;2023-05-14T10:45:03;5.13;;;3.30;;
13588;SDS011;6865;52.552;13.434;2023-05-14T10:47:32;5.63;;;3.90;;
13588;SDS011;6865;52.552;13.434;2023-05-14T10:50:08;5.28;;;3.65;;
13588;SDS011;6865;52.552;13.434;2023-05-14T10:52:39;6.40;;;3.60;;
13588;SDS011;6865;52.552;13.434;2023-05-14T10:55:07;5.95;;;3.47;;
13588;SDS011;6865;52.552;13.434;2023-05-14T10:57:38;5.88;;;3.85;;
13588;SDS011;6865;52.552;13.434;2023-05-14T11:00:07;4.72;;;3.55;;
13588;SDS011;6865;52.552;13.434;2023-05-14T11:02:35;10.13;;;4.00;;
13588;SDS011;6865;52.552;13.434;2023-05-14T11:05:03;8.45;;;4.00;;
13588;SDS011;6865;52.552;13.434;2023-05-14T11:07:37;6.57;;;3.35;;
13588;SDS011;6865;52.552;13.434;2023-05-14T11:10:05;5.78;;;3.30;;
13588;SDS011;6865;52.552;13.434;2023-05-14T11:12:34;6.30;;;3.92;;
13588;SDS011;6865;52.552;13.434;2023-05-14T11:15:07;11.52;;;3.63;;
13588;SDS011;6865;52.552;13.434;2023-05-14T11:17:36;5.90;;;3.50;;
13588;SDS011;6865;52.552;13.434;2023-05-14T11:20:05;5.05;;;3.63;;
13588;SDS011;6865;52.552;13.434;2023-05-14T11:22:33;6.80;;;3.65;;
13588;SDS011;6865;52.552;13.434;2023-05-14T11:25:03;6.43;;;3.58;;
13588;SDS011;6865;52.552;13.434;2023-05-14T11:27:32;4.20;;;3.80;;
13588;SDS011;6865;52.552;13.434;2023-05-14T11:30:00;8.02;;;3.95;;
13588;SDS011;6865;52.552;13.434;2023-05-14T11:32:27;6.82;;;3.90;;
13588;SDS011;6865;52.552;13.434;2023-05-14T11:34:53;4.13;;;3.72;;
13588;SDS011;6865;52.552;13.434;2023-05-14T11:37:20;4.20;;;3.58;;
13588;SDS011;6865;52.552;13.434;2023-05-14T11:39:48;5.13;;;3.45;;
13588;SDS011;6865;52.552;13.434;2023-05-14T11:42:17;7.72;;;3.83;;
13588;SDS011;6865;52.552;13.434;2023-05-14T11:44:51;4.82;;;3.78;;
13588;SDS011;6865;52.552;13.434;2023-05-14T11:47:19;5.05;;;3.83;;
13588;SDS011;6865;52.552;13.434;2023-05-14T11:49:47;8.63;;;3.60;;
13588;SDS011;6865;52.552;13.434;2023-05-14T11:52:14;6.18;;;3.78;;
13588;SDS011;6865;52.552;13.434;2023-05-14T11:54:44;4.97;;;3.97;;
13588;SDS011;6865;52.552;13.434;2023-05-14T11:57:12;5.97;;;3.67;;
13588;SDS011;6865;52.552;13.434;2023-05-14T11:59:41;5.50;;;4.05;;
13588;SDS011;6865;52.552;13.434;2023-05-14T12:02:12;5.88;;;3.72;;
13588;SDS011;6865;52.552;13.434;2023-05-14T12:04:43;3.95;;;3.55;;
13588;SDS011;6865;52.552;13.434;2023-05-14T12:07:14;4.28;;;3.70;;
13588;SDS011;6865;52.552;13.434;2023-05-14T12:09:42;7.65;;;3.70;;
13588;SDS011;6865;52.552;13.434;2023-05-14T12:12:17;4.78;;;4.13;;
13588;SDS011;6865;52.552;13.434;2023-05-14T12:14:46;6.13;;;3.83;;
13588;SDS011;6865;52.552;13.434;2023-05-14T12:17:14;4.55;;;3.95;;
13588;SDS011;6865;52.552;13.434;2023-05-14T12:19:43;4.22;;;3.60;;
13588;SDS011;6865;52.552;13.434;2023-05-14T12:22:11;5.82;;;3.88;;
13588;SDS011;6865;52.552;13.434;2023-05-14T12:24:41;5.43;;;3.47;;
13588;SDS011;6865;52.552;13.434;2023-05-14T12:27:08;5.18;;;4.10;;
13588;SDS011;6865;52.552;13.434;2023-05-14T12:29:36;6.28;;;3.90;;
13588;SDS011;6865;52.552;13.434;2023-05-14T12:32:06;6.65;;;3.80;;
13588;SDS011;6865;52.552;13.434;2023-05-14T12:34:36;5.57;;;4.15;;
13588;SDS011;6865;52.552;13.434;2023-05-14T12:37:04;6.30;;;4.22;;
13588;SDS011;6865;52.552;13.434;2023-05-14T12:39:32;4.82;;;3.72;;
13588;SDS011;6865;52.552;13.434;2023-05-14T12:41:59;6.55;;;4.35;;
13588;SDS011;6865;52.552;13.434;2023-05-14T12:44:27;5.40;;;3.50;;
13588;SDS011;6865;52.552;13.434;2023-05-14T12:46:54;5.78;;;3.53;;
13588;SDS011;6865;52.552;13.434;2023-05-14T12:49:23;4.35;;;3.67;;
13588;SDS011;6865;52.552;13.434;2023-05-14T12:51:52;5.85;;;3.47;;
13588;SDS011;6865;52.552;13.434;2023-05-14T12:54:38;4.05;;;3.50;;
13588;SDS011;6865;52.552;13.434;2023-05-14T12:57:08;8.15;;;3.85;;
13588;SDS011;6865;52.552;13.434;2023-05-14T12:59:35;5.15;;;3.13;;
13588;SDS011;6865;52.552;13.434;2023-05-14T13:02:01;3.78;;;3.30;;
13588;SDS011;6865;52.552;13.434;2023-05-14T13:04:28;6.38;;;3.63;;
13588;SDS011;6865;52.552;13.434;2023-05-14T13:06:55;5.25;;;3.40;;
13588;SDS011;6865;52.552;13.434;2023-05-14T13:09:21;5.13;;;3.65;;
13588;SDS011;6865;52.552;13.434;2023-05-14T13:11:48;3.67;;;3.38;;
13588;SDS011;6865;52.552;13.434;2023-05-14T13:14:14;4.25;;;3.20;;
13588;SDS011;6865;52.552;13.434;2023-05-14T13:16:43;6.53;;;3.60;;
13588;SDS011;6865;52.552;13.434;2023-05-14T13:19:10;5.35;;;3.38;;
13588;SDS011;6865;52.552;13.434;2023-05-14T13:21:36;11.18;;;3.42;;
13588;SDS011;6865;52.552;13.434;2023-05-14T13:24:03;4.47;;;3.60;;
13588;SDS011;6865;52.552;13.434;2023-05-14T13:26:30;6.90;;;3.50;;
13588;SDS011;6865;52.552;13.434;2023-05-14T13:28:56;5.10;;;3.22;;
13588;SDS011;6865;52.552;13.434;2023-05-14T13:31:23;4.53;;;3.60;;
13588;SDS011;6865;52.552;13.434;2023-05-14T13:33:50;6.63;;;4.07;;
13588;SDS011;6865;52.552;13.434;2023-05-14T13:36:17;5.65;;;3.83;;
13588;SDS011;6865;52.552;13.434;2023-05-14T13:38:44;7.25;;;3.50;;
13588;SDS011;6865;52.552;13.434;2023-05-14T13:41:11;5.13;;;3.33;;
13588;SDS011;6865;52.552;13.434;2023-05-14T13:43:38;8.05;;;3.72;;
13588;SDS011;6865;52.552;13.434;2023-05-14T13:46:05;5.70;;;3.75;;
13588;SDS011;6865;52.552;13.434;2023-05-14T13:48:32;9.52;;;3.90;;
13588;SDS011;6865;52.552;13.434;2023-05-14T13:51:00;4.43;;;3.20;;
13588;SDS011;6865;52.552;13.434;2023-05-14T13:53:27;4.32;;;3.45;;
13588;SDS011;6865;52.552;13.434;2023-05-14T13:55:53;6.30;;;3.40;;
13588;SDS011;6865;52.552;13.434;2023-05-14T13:58:25;6.47;;;3.60;;
13588;SDS011;6865;52.552;13.434;2023-05-14T14:00:52;4.15;;;3.70;;
13588;SDS011;6865;52.552;13.434;2023-05-14T14:03:19;5.70;;;3.40;;
13588;SDS011;6865;52.552;13.434;2023-05-14T14:05:46;5.65;;;3.20;;
13588;SDS011;6865;52.552;13.434;2023-05-14T14:08:13;4.70;;;3.65;;
13588;SDS011;6865;52.552;13.434;2023-05-14T14:10:49;5.03;;;3.30;;
13588;SDS011;6865;52.552;13.434;2023-05-14T14:13:16;7.55;;;3.55;;
13588;SDS011;6865;52.552;13.434;2023-05-14T14:15:43;3.83;;;3.33;;
13588;SDS011;6865;52.552;13.434;2023-05-14T14:18:10;5.65;;;3.47;;
13588;SDS011;6865;52.552;13.434;2023-05-14T14:20:37;5.47;;;3.28;;
13588;SDS011;6865;52.552;13.434;2023-05-14T14:23:03;6.80;;;3.13;;
13588;SDS011;6865;52.552;13.434;2023-05-14T14:25:30;3.53;;;3.22;;
13588;SDS011;6865;52.552;13.434;2023-05-14T14:27:56;3.80;;;3.40;;
13588;SDS011;6865;52.552;13.434;2023-05-14T14:30:23;3.88;;;3.25;;
13588;SDS011;6865;52.552;13.434;2023-05-14T14:32:50;4.68;;;3.25;;
13588;SDS011;6865;52.552;13.434;2023-05-14T14:35:17;4.75;;;3.08;;
13588;SDS011;6865;52.552;13.434;2023-05-14T14:37:45;7.32;;;3.35;;
13588;SDS011;6865;52.552;13.434;2023-05-14T14:40:16;4.45;;;3.05;;
13588;SDS011;6865;52.552;13.434;2023-05-14T14:42:43;6.60;;;3.70;;
13588;SDS011;6865;52.552;13.434;2023-05-14T14:45:10;5.90;;;3.45;;
13588;SDS011;6865;52.552;13.434;2023-05-14T14:47:37;4.78;;;3.10;;
13588;SDS011;6865;52.552;13.434;2023-05-14T14:50:04;5.22;;;3.55;;
13588;SDS011;6865;52.552;13.434;2023-05-14T14:52:31;3.58;;;2.78;;
13588;SDS011;6865;52.552;13.434;2023-05-14T14:54:58;3.83;;;3.22;;